Time;durP1;ratioP1;P1;durP2;ratioP2;P2;SDS_P1;SDS_P2;PMS_P1;PMS_P2;Temp;Humidity;BMP_temperature;BMP_pressure;BME280_temperature;BME280_humidity;BME280_pressure;Samples;Min_cycle;Max_cycle;Signal;HPM_P1;HPM_P2
2021/06/16 00:00:17;;;;;;;2.55;0.80;;;18.20;86.40;;;;;;5014347;28;20022;-84
2021/06/16 00:02:43;;;;;;;1.88;0.70;;;18.20;86.70;;;;;;5014602;28;20030;-84
2021/06/16 00:05:14;;;;;;;1.92;0.80;;;18.10;86.90;;;;;;5014276;28;20064;-84
2021/06/16 00:07:40;;;;;;;2.67;0.80;;;18.10;87.20;;;;;;5014485;28;20053;-84
2021/06/16 00:10:07;;;;;;;2.65;0.85;;;18.10;87.40;;;;;;5014467;28;20481;-84
2021/06/16 00:12:34;;;;;;;3.55;0.95;;;18.00;87.60;;;;;;4995441;28;20486;-84
2021/06/16 00:15:00;;;;;;;3.17;1.00;;;18.00;87.70;;;;;;5013174;28;20149;-83
2021/06/16 00:17:25;;;;;;;4.22;1.20;;;18.00;87.80;;;;;;4997263;28;20449;-83
2021/06/16 00:19:51;;;;;;;2.35;0.90;;;18.00;88.00;;;;;;5014407;28;20405;-82
2021/06/16 00:22:17;;;;;;;5.30;1.10;;;18.00;88.20;;;;;;4996420;28;20029;-82
2021/06/16 00:24:42;;;;;;;2.45;1.02;;;17.90;88.20;;;;;;4999998;28;20037;-81
2021/06/16 00:27:11;;;;;;;3.53;1.00;;;17.90;88.40;;;;;;5021873;28;20045;-80
2021/06/16 00:29:37;;;;;;;1.50;0.70;;;17.90;88.50;;;;;;5007066;28;20036;-82
2021/06/16 00:32:03;;;;;;;2.78;0.90;;;17.90;88.70;;;;;;4998141;28;20030;-82
2021/06/16 00:34:30;;;;;;;3.65;1.30;;;17.90;88.80;;;;;;4996658;28;20034;-81
2021/06/16 00:36:56;;;;;;;2.30;1.02;;;17.80;89.00;;;;;;4997805;28;20029;-82
2021/06/16 00:39:22;;;;;;;2.72;0.98;;;17.80;89.10;;;;;;5014651;28;20402;-82
2021/06/16 00:41:48;;;;;;;3.67;0.85;;;17.80;89.30;;;;;;4997112;28;20065;-81
2021/06/16 00:44:16;;;;;;;2.15;0.90;;;17.80;89.40;;;;;;4996945;28;20463;-82
2021/06/16 00:46:42;;;;;;;2.53;0.85;;;17.80;89.60;;;;;;4996988;28;20091;-82
2021/06/16 00:49:08;;;;;;;2.58;1.10;;;17.70;89.70;;;;;;4996153;28;20030;-82
2021/06/16 00:51:34;;;;;;;5.05;0.90;;;17.70;89.90;;;;;;4996549;28;20036;-82
2021/06/16 00:54:09;;;;;;;2.80;0.93;;;17.70;90.00;;;;;;5014129;28;20093;-82
2021/06/16 00:56:40;;;;;;;3.53;1.10;;;17.70;90.10;;;;;;4996587;28;20119;-82
2021/06/16 00:59:07;;;;;;;3.47;1.05;;;17.60;90.10;;;;;;4996494;28;20485;-82
2021/06/16 01:01:40;;;;;;;3.22;0.95;;;17.60;90.10;;;;;;4996179;28;20493;-82
2021/06/16 01:04:13;;;;;;;1.90;0.90;;;17.60;90.10;;;;;;5014030;28;20053;-82
2021/06/16 01:06:48;;;;;;;1.98;0.93;;;17.70;90.20;;;;;;5013760;28;20136;-83
2021/06/16 01:09:20;;;;;;;3.00;1.10;;;17.60;90.20;;;;;;4996413;28;20026;-82
2021/06/16 01:12:06;;;;;;;3.58;1.10;;;17.60;90.30;;;;;;5012473;28;20050;-83
2021/06/16 01:14:55;;;;;;;2.88;0.90;;;17.50;90.40;;;;;;4962675;28;20103;-83
2021/06/16 01:17:42;;;;;;;2.42;0.90;;;17.50;90.50;;;;;;5012906;28;20487;-83
2021/06/16 01:20:29;;;;;;;3.90;1.20;;;17.50;90.40;;;;;;5012836;28;20029;-83
2021/06/16 01:22:58;;;;;;;3.75;0.93;;;17.50;90.50;;;;;;5000384;28;20120;-83
2021/06/16 01:25:49;;;;;;;5.93;1.52;;;17.40;90.50;;;;;;5006712;28;20172;-82
2021/06/16 01:28:18;;;;;;;1.98;0.80;;;17.40;90.50;;;;;;5013912;28;20026;-82
2021/06/16 01:30:45;;;;;;;1.73;0.82;;;17.50;90.60;;;;;;4996221;28;20112;-83
2021/06/16 01:33:12;;;;;;;4.90;1.17;;;17.40;90.60;;;;;;5013675;28;20041;-83
2021/06/16 01:35:41;;;;;;;3.20;1.40;;;17.40;90.70;;;;;;4996446;28;20033;-83
2021/06/16 01:38:08;;;;;;;4.63;1.15;;;17.30;90.80;;;;;;4996629;28;20526;-81
2021/06/16 01:40:35;;;;;;;3.10;1.13;;;17.30;90.90;;;;;;4996278;28;20026;-83
2021/06/16 01:43:03;;;;;;;3.92;0.90;;;17.30;90.90;;;;;;5013430;28;20528;-82
2021/06/16 01:45:32;;;;;;;2.55;1.10;;;17.30;91.00;;;;;;5013895;28;20029;-83
2021/06/16 01:48:01;;;;;;;3.65;1.02;;;17.30;91.00;;;;;;4995563;28;20030;-83
2021/06/16 01:50:28;;;;;;;2.83;1.10;;;17.30;91.10;;;;;;5013513;28;20149;-83
2021/06/16 01:52:57;;;;;;;2.80;1.00;;;17.20;91.10;;;;;;5013701;28;20049;-82
2021/06/16 01:55:23;;;;;;;3.53;1.25;;;17.20;91.10;;;;;;5013397;28;20058;-82
2021/06/16 01:57:52;;;;;;;3.38;1.00;;;17.20;91.20;;;;;;4996162;28;20041;-83
2021/06/16 02:00:19;;;;;;;2.75;1.10;;;17.20;91.30;;;;;;5013488;28;20380;-83
2021/06/16 02:02:45;;;;;;;2.50;1.10;;;17.20;91.40;;;;;;4995983;28;20079;-83
2021/06/16 02:05:12;;;;;;;3.97;1.33;;;17.20;91.50;;;;;;5013776;28;20064;-83
2021/06/16 02:07:42;;;;;;;2.90;0.90;;;17.10;91.50;;;;;;4995661;28;20029;-83
2021/06/16 02:10:10;;;;;;;3.65;1.25;;;17.10;91.60;;;;;;4999138;28;20120;-83
2021/06/16 02:12:38;;;;;;;2.60;1.00;;;17.10;91.70;;;;;;5016473;28;20026;-83
2021/06/16 02:15:12;;;;;;;3.90;1.00;;;17.00;91.70;;;;;;5017409;28;20041;-83
2021/06/16 02:17:39;;;;;;;;;;;17.00;91.80;;;;;;5034543;28;20066;-81
2021/06/16 02:20:06;;;;;;;2.10;0.88;;;16.90;91.70;;;;;;5021674;28;19992;-82
2021/06/16 02:22:33;;;;;;;2.50;1.02;;;17.00;91.80;;;;;;5000851;28;20022;-82
2021/06/16 02:24:59;;;;;;;3.05;0.93;;;16.90;91.90;;;;;;4999492;28;20381;-82
2021/06/16 02:27:25;;;;;;;3.17;0.93;;;17.00;92.00;;;;;;5017439;28;20104;-82
2021/06/16 02:29:51;;;;;;;4.63;1.20;;;16.90;92.10;;;;;;5017009;28;20032;-82
2021/06/16 02:32:18;;;;;;;3.55;0.90;;;16.90;92.10;;;;;;4998964;28;20041;-82
2021/06/16 02:34:43;;;;;;;3.58;1.17;;;16.90;92.20;;;;;;5016463;28;20025;-83
2021/06/16 02:37:16;;;;;;;2.33;0.90;;;16.80;92.30;;;;;;5016517;28;20030;-83
2021/06/16 02:39:51;;;;;;;4.40;1.00;;;16.80;92.40;;;;;;5016842;28;20026;-82
2021/06/16 02:42:18;;;;;;;2.58;1.15;;;16.80;92.40;;;;;;4999302;28;20026;-83
2021/06/16 02:44:44;;;;;;;3.42;1.08;;;16.80;92.60;;;;;;5016472;28;20026;-83
2021/06/16 02:47:10;;;;;;;3.13;0.90;;;16.80;92.70;;;;;;5016737;28;20030;-83
2021/06/16 02:49:41;;;;;;;3.65;1.10;;;16.70;92.70;;;;;;5016649;28;20066;-83
2021/06/16 02:52:11;;;;;;;3.33;1.30;;;16.70;92.80;;;;;;5016310;28;20038;-82
2021/06/16 02:54:37;;;;;;;3.22;1.23;;;16.70;92.80;;;;;;4998437;28;20506;-83
2021/06/16 02:57:05;;;;;;;2.58;1.13;;;16.70;92.90;;;;;;5015933;28;20505;-83
2021/06/16 02:59:33;;;;;;;2.30;1.10;;;16.60;93.00;;;;;;4998557;28;20022;-83
2021/06/16 03:01:59;;;;;;;3.20;1.33;;;16.70;93.10;;;;;;5015758;28;20036;-83
2021/06/16 03:04:26;;;;;;;5.68;1.15;;;16.60;93.00;;;;;;4997956;28;20100;-83
2021/06/16 03:06:55;;;;;;;2.55;1.17;;;16.60;93.10;;;;;;4998462;28;20030;-83
2021/06/16 03:09:22;;;;;;;3.58;1.35;;;16.60;93.20;;;;;;4998499;28;20030;-83
2021/06/16 03:11:51;;;;;;;3.25;1.25;;;16.60;93.30;;;;;;4997970;28;20064;-83
2021/06/16 03:14:21;;;;;;;3.10;1.27;;;16.50;93.30;;;;;;4997822;28;20030;-82
2021/06/16 03:16:48;;;;;;;4.95;1.60;;;16.60;93.40;;;;;;5015437;28;20518;-83
2021/06/16 03:19:13;;;;;;;3.45;1.42;;;16.50;93.40;;;;;;4997482;28;20026;-82
2021/06/16 03:21:42;;;;;;;3.47;1.48;;;16.60;93.50;;;;;;5015199;28;20386;-83
2021/06/16 03:24:10;;;;;;;3.50;1.40;;;16.50;93.50;;;;;;5014731;28;20033;-83
2021/06/16 03:26:36;;;;;;;4.45;1.20;;;16.50;93.60;;;;;;4998080;28;20014;-83
2021/06/16 03:29:02;;;;;;;3.45;1.02;;;16.50;93.70;;;;;;5027726;28;20025;-83
2021/06/16 03:31:28;;;;;;;4.07;1.27;;;16.50;93.80;;;;;;5003376;28;20048;-82
2021/06/16 03:33:55;;;;;;;3.03;1.70;;;16.50;93.80;;;;;;5015744;28;20030;-82
2021/06/16 03:36:21;;;;;;;3.67;1.27;;;16.50;93.90;;;;;;5015607;28;20140;-83
2021/06/16 03:38:50;;;;;;;3.30;1.20;;;16.50;94.00;;;;;;5015654;28;20030;-82
2021/06/16 03:41:16;;;;;;;4.00;1.35;;;16.50;94.00;;;;;;5015594;28;20033;-83
2021/06/16 03:43:44;;;;;;;3.55;1.45;;;16.50;94.10;;;;;;5015159;28;20076;-82
2021/06/16 03:46:11;;;;;;;2.78;1.40;;;16.50;94.20;;;;;;4997585;28;20026;-83
2021/06/16 03:48:40;;;;;;;3.05;1.30;;;16.50;94.20;;;;;;5015288;28;20072;-82
2021/06/16 03:51:06;;;;;;;3.00;1.00;;;16.40;94.20;;;;;;4997658;28;20084;-82
2021/06/16 03:53:32;;;;;;;4.05;1.67;;;16.40;94.30;;;;;;5014585;28;20502;-82
2021/06/16 03:55:59;;;;;;;4.40;1.65;;;16.50;94.30;;;;;;4997291;28;20026;-82
2021/06/16 03:58:25;;;;;;;5.10;1.70;;;16.50;94.40;;;;;;5015198;28;20084;-82
2021/06/16 04:00:51;;;;;;;4.45;1.77;;;16.50;94.40;;;;;;5015025;28;20486;-81
2021/06/16 04:03:18;;;;;;;3.83;1.50;;;16.50;94.40;;;;;;5014646;28;20026;-84
2021/06/16 04:05:44;;;;;;;3.00;1.20;;;16.50;94.50;;;;;;5015144;28;20049;-82
2021/06/16 04:08:13;;;;;;;3.45;1.48;;;16.50;94.50;;;;;;5001186;28;20025;-83
2021/06/16 04:10:46;;;;;;;4.22;1.58;;;16.50;94.60;;;;;;5015487;28;20065;-83
2021/06/16 04:13:12;;;;;;;3.22;1.52;;;16.50;94.60;;;;;;4997784;28;20065;-81
2021/06/16 04:15:38;;;;;;;3.95;1.77;;;16.50;94.60;;;;;;5015206;28;20029;-83
2021/06/16 04:18:05;;;;;;;3.45;1.63;;;16.50;94.60;;;;;;5014472;28;20029;-83
2021/06/16 04:20:31;;;;;;;3.25;1.55;;;16.50;94.70;;;;;;4996542;28;20034;-83
2021/06/16 04:23:01;;;;;;;4.13;1.85;;;16.60;94.70;;;;;;5014360;28;20113;-83
2021/06/16 04:25:27;;;;;;;4.03;1.65;;;16.60;94.70;;;;;;4996777;28;20038;-83
2021/06/16 04:27:53;;;;;;;4.22;1.52;;;16.60;94.70;;;;;;5014353;28;20034;-83
2021/06/16 04:30:21;;;;;;;5.90;1.55;;;16.70;94.80;;;;;;4996395;28;20031;-83
2021/06/16 04:32:48;;;;;;;3.53;1.63;;;16.70;94.80;;;;;;4997404;28;20030;-83
2021/06/16 04:35:13;;;;;;;2.83;1.60;;;16.80;94.80;;;;;;4997069;28;20451;-83
2021/06/16 04:37:39;;;;;;;3.75;1.63;;;16.80;94.80;;;;;;4996844;28;20032;-82
2021/06/16 04:40:07;;;;;;;4.35;1.88;;;16.90;94.80;;;;;;5014475;28;20030;-83
2021/06/16 04:42:33;;;;;;;3.65;1.80;;;16.90;94.80;;;;;;4996796;28;20084;-84
2021/06/16 04:44:59;;;;;;;3.55;1.83;;;17.00;94.80;;;;;;5014287;28;20431;-83
2021/06/16 04:47:24;;;;;;;5.70;1.73;;;17.10;94.80;;;;;;4996873;28;20025;-82
2021/06/16 04:49:50;;;;;;;3.80;1.73;;;17.10;94.70;;;;;;4996811;28;20482;-83
2021/06/16 04:52:16;;;;;;;2.67;1.70;;;17.20;94.70;;;;;;4996707;28;20026;-83
2021/06/16 04:54:41;;;;;;;4.60;1.67;;;17.20;94.70;;;;;;4996053;28;20077;-82
2021/06/16 04:57:08;;;;;;;3.03;1.90;;;17.30;94.70;;;;;;4996685;28;20116;-82
2021/06/16 04:59:34;;;;;;;4.15;1.65;;;17.30;94.60;;;;;;5014022;28;20107;-83
2021/06/16 05:02:01;;;;;;;3.75;1.73;;;17.40;94.60;;;;;;4996090;28;20478;-82
2021/06/16 05:04:27;;;;;;;3.95;1.60;;;17.50;94.60;;;;;;4995804;28;20050;-83
2021/06/16 05:06:58;;;;;;;3.20;1.50;;;17.50;94.50;;;;;;4996138;28;20382;-83
2021/06/16 05:09:27;;;;;;;5.15;1.70;;;17.60;94.50;;;;;;4996645;28;20014;-83
2021/06/16 05:11:53;;;;;;;3.20;1.90;;;17.60;94.50;;;;;;5013670;28;20049;-83
2021/06/16 05:14:19;;;;;;;4.03;1.65;;;17.60;94.40;;;;;;4996163;28;20022;-83
2021/06/16 05:16:44;;;;;;;4.32;1.65;;;17.70;94.50;;;;;;4962021;28;20554;-83
2021/06/16 05:19:17;;;;;;;6.18;1.80;;;17.80;94.40;;;;;;4994336;28;20015;-83
2021/06/16 05:21:46;;;;;;;4.50;1.95;;;17.80;94.40;;;;;;4993840;28;20101;-83
2021/06/16 05:24:12;;;;;;;5.03;2.17;;;17.80;94.40;;;;;;4994083;28;20026;-83
2021/06/16 05:26:38;;;;;;;4.18;1.70;;;17.90;94.30;;;;;;5012343;28;20026;-83
2021/06/16 05:29:08;;;;;;;6.45;1.85;;;17.90;94.30;;;;;;5011887;28;20414;-83
2021/06/16 05:31:39;;;;;;;5.18;2.25;;;17.90;94.30;;;;;;4976225;28;20089;-83
2021/06/16 05:34:05;;;;;;;5.97;2.05;;;18.00;94.30;;;;;;5005672;28;20049;-82
2021/06/16 05:36:31;;;;;;;3.25;1.58;;;18.00;94.30;;;;;;4986759;28;20019;-82
2021/06/16 05:38:58;;;;;;;5.60;1.98;;;18.10;94.30;;;;;;4977015;28;20047;-82
2021/06/16 05:41:23;;;;;;;3.65;1.70;;;18.10;94.30;;;;;;4974353;28;20096;-83
2021/06/16 05:43:49;;;;;;;4.15;2.00;;;18.20;94.30;;;;;;4977474;28;20113;-83
2021/06/16 05:46:15;;;;;;;5.38;1.73;;;18.20;94.30;;;;;;4995419;28;20501;-83
2021/06/16 05:48:41;;;;;;;6.30;2.17;;;18.30;94.30;;;;;;4996386;28;20018;-83
2021/06/16 05:51:07;;;;;;;4.93;2.38;;;18.40;94.20;;;;;;4996339;28;20026;-83
2021/06/16 05:53:36;;;;;;;4.13;1.98;;;18.50;94.20;;;;;;4982906;28;20027;-80
2021/06/16 05:56:01;;;;;;;6.07;2.60;;;18.60;94.20;;;;;;4987245;28;20037;-83
2021/06/16 05:58:27;;;;;;;5.38;2.60;;;18.70;94.10;;;;;;4996580;28;20090;-83
2021/06/16 06:00:53;;;;;;;4.95;1.73;;;18.80;94.00;;;;;;4995668;28;20035;-82
2021/06/16 06:03:18;;;;;;;5.13;1.75;;;18.80;93.90;;;;;;4996991;28;20097;-83
2021/06/16 06:05:50;;;;;;;6.28;2.22;;;18.90;93.80;;;;;;4997711;28;20030;-83
2021/06/16 06:08:19;;;;;;;4.97;1.98;;;18.90;93.80;;;;;;4997008;28;20041;-82
2021/06/16 06:10:45;;;;;;;4.47;1.83;;;19.00;93.70;;;;;;4979709;28;20030;-83
2021/06/16 06:13:17;;;;;;;3.83;2.33;;;19.10;93.70;;;;;;4979802;28;20034;-83
2021/06/16 06:15:53;;;;;;;3.58;1.77;;;19.10;93.60;;;;;;4980154;28;20073;-83
2021/06/16 06:18:25;;;;;;;3.03;1.95;;;19.10;93.50;;;;;;4997635;28;20382;-82
2021/06/16 06:20:51;;;;;;;5.63;2.28;;;19.20;93.50;;;;;;4997321;28;20026;-82
2021/06/16 06:23:16;;;;;;;5.10;2.03;;;19.20;93.50;;;;;;4996921;28;20091;-82
2021/06/16 06:25:43;;;;;;;3.42;1.83;;;19.30;93.50;;;;;;4963537;28;20059;-83
2021/06/16 06:28:09;;;;;;;2.95;1.98;;;19.30;93.40;;;;;;4997085;28;20101;-83
2021/06/16 06:30:34;;;;;;;3.05;1.70;;;19.30;93.40;;;;;;4979524;28;20061;-82
2021/06/16 06:33:00;;;;;;;5.53;2.33;;;19.40;93.40;;;;;;4996606;28;20038;-82
2021/06/16 06:35:27;;;;;;;4.43;2.05;;;19.40;93.40;;;;;;4978990;28;20037;-82
2021/06/16 06:37:52;;;;;;;6.45;2.35;;;19.40;93.40;;;;;;4996199;28;20482;-83
2021/06/16 06:40:18;;;;;;;4.88;2.28;;;19.40;93.50;;;;;;4979271;28;20081;-82
2021/06/16 06:42:44;;;;;;;3.67;2.20;;;19.50;93.50;;;;;;4977948;28;20105;-83
2021/06/16 06:45:09;;;;;;;6.50;2.55;;;19.50;93.50;;;;;;4977494;28;20117;-83
2021/06/16 06:47:44;;;;;;;7.38;2.55;;;19.60;93.50;;;;;;4995348;28;20025;-84
2021/06/16 06:50:14;;;;;;;4.53;2.10;;;19.70;93.50;;;;;;4977871;28;20038;-83
2021/06/16 06:52:43;;;;;;;4.72;1.98;;;19.80;93.40;;;;;;4978794;28;20030;-82
2021/06/16 06:55:10;;;;;;;3.97;2.00;;;19.90;93.50;;;;;;4978508;28;20026;-82
2021/06/16 06:57:37;;;;;;;3.75;2.10;;;19.90;93.40;;;;;;4979051;28;20379;-83
2021/06/16 07:00:06;;;;;;;5.32;2.47;;;19.90;93.50;;;;;;4995874;28;20037;-83
2021/06/16 07:02:32;;;;;;;3.53;1.98;;;20.00;93.50;;;;;;4978985;28;20050;-83
2021/06/16 07:05:04;;;;;;;3.80;2.00;;;20.00;93.50;;;;;;4995939;28;20046;-83
2021/06/16 07:07:30;;;;;;;6.82;2.47;;;20.10;93.40;;;;;;4978676;28;20052;-84
2021/06/16 07:10:07;;;;;;;5.10;2.25;;;20.20;93.40;;;;;;4978937;28;20026;-83
2021/06/16 07:12:33;;;;;;;4.05;2.22;;;20.30;93.40;;;;;;4978674;28;20427;-83
2021/06/16 07:15:12;;;;;;;3.30;2.08;;;20.40;93.20;;;;;;4978845;28;20080;-83
2021/06/16 07:17:51;;;;;;;5.95;2.72;;;20.60;93.10;;;;;;4978964;28;20022;-84
2021/06/16 07:20:24;;;;;;;4.20;2.50;;;20.70;93.00;;;;;;4983901;28;20038;-82
2021/06/16 07:22:50;;;;;;;6.00;2.58;;;20.70;92.90;;;;;;4996178;28;20036;-82
2021/06/16 07:25:21;;;;;;;4.68;2.15;;;20.90;92.80;;;;;;4978116;28;20034;-82
2021/06/16 07:27:53;;;;;;;4.13;2.20;;;20.90;92.60;;;;;;4995848;28;20121;-82
2021/06/16 07:30:22;;;;;;;4.32;2.08;;;21.00;92.60;;;;;;4996162;28;20386;-82
2021/06/16 07:32:48;;;;;;;3.65;2.03;;;21.10;92.60;;;;;;4978550;28;20022;-82
2021/06/16 07:35:15;;;;;;;2.75;1.75;;;21.20;92.60;;;;;;4985817;28;20014;-83
2021/06/16 07:37:44;;;;;;;4.47;1.98;;;21.20;92.60;;;;;;5008332;28;20031;-81
2021/06/16 07:40:11;;;;;;;5.40;2.05;;;21.30;92.50;;;;;;5002527;28;20093;-80
2021/06/16 07:42:38;;;;;;;3.92;1.88;;;21.40;92.40;;;;;;5019190;28;20090;-82
2021/06/16 07:45:14;;;;;;;3.92;2.10;;;21.40;92.40;;;;;;4988966;28;20022;-82
2021/06/16 07:47:39;;;;;;;3.63;2.20;;;21.60;92.20;;;;;;5010580;28;20092;-83
2021/06/16 07:50:07;;;;;;;3.50;1.48;;;21.70;92.00;;;;;;4997566;28;20022;-82
2021/06/16 07:52:35;;;;;;;3.53;1.95;;;21.80;92.00;;;;;;4968846;28;20038;-84
2021/06/16 07:55:05;;;;;;;3.33;2.15;;;21.90;91.70;;;;;;4978185;28;20022;-83
2021/06/16 07:57:30;;;;;;;4.65;1.90;;;22.00;91.70;;;;;;4978239;28;20023;-83
2021/06/16 07:59:57;;;;;;;3.25;1.60;;;22.00;91.60;;;;;;4977412;28;20054;-84
2021/06/16 08:02:46;;;;;;;3.83;1.58;;;22.10;91.50;;;;;;4995240;28;20034;-83
2021/06/16 08:05:15;;;;;;;4.18;2.03;;;22.20;91.30;;;;;;4999131;28;20054;-83
2021/06/16 08:07:43;;;;;;;3.05;1.58;;;22.30;91.10;;;;;;4989622;28;20347;-84
2021/06/16 08:10:10;;;;;;;2.88;1.63;;;22.40;91.10;;;;;;5011421;28;20054;-83
2021/06/16 08:12:38;;;;;;;5.25;1.75;;;22.50;90.90;;;;;;5010853;28;20029;-84
2021/06/16 08:15:10;;;;;;;4.10;1.60;;;22.60;90.90;;;;;;4996743;28;20075;-84
2021/06/16 08:17:41;;;;;;;4.22;1.70;;;22.70;90.70;;;;;;4989673;28;20022;-84
2021/06/16 08:20:36;;;;;;;3.58;2.20;;;22.80;90.60;;;;;;5013322;28;20054;-84
2021/06/16 08:23:03;;;;;;;4.97;1.80;;;22.90;90.30;;;;;;4963949;28;20104;-84
2021/06/16 08:25:29;;;;;;;3.28;1.90;;;23.00;90.30;;;;;;4996191;28;20018;-84
2021/06/16 08:27:57;;;;;;;4.47;2.35;;;23.10;90.10;;;;;;4996257;28;20022;-83
2021/06/16 08:30:23;;;;;;;2.88;1.75;;;23.20;90.10;;;;;;5012954;28;20462;-84
2021/06/16 08:32:54;;;;;;;3.03;1.50;;;23.20;90.00;;;;;;5014043;28;20087;-84
2021/06/16 08:35:21;;;;;;;4.30;2.10;;;23.30;90.00;;;;;;5016939;28;20010;-83
2021/06/16 08:38:07;;;;;;;4.53;2.08;;;23.40;90.00;;;;;;4996469;28;20030;-83
2021/06/16 08:40:55;;;;;;;4.00;1.80;;;23.50;89.60;;;;;;4987923;28;20064;-84
2021/06/16 08:43:39;;;;;;;3.15;1.70;;;23.60;89.50;;;;;;4999558;28;20053;-84
2021/06/16 08:46:26;;;;;;;;;;;;;;;;;;;;;
2021/06/16 08:49:04;;;;;;;4.00;1.80;;;23.80;89.00;;;;;;5013837;28;20363;-84
2021/06/16 08:51:33;;;;;;;4.13;1.67;;;23.90;88.80;;;;;;4995796;28;20088;-85
2021/06/16 08:54:05;;;;;;;3.95;1.77;;;23.90;88.70;;;;;;5013379;28;20478;-85
2021/06/16 08:56:35;;;;;;;4.03;1.80;;;24.10;88.50;;;;;;4997461;28;20489;-84
2021/06/16 08:59:01;;;;;;;3.20;1.63;;;24.20;88.20;;;;;;4996315;28;20060;-84
2021/06/16 09:01:41;;;;;;;2.50;1.52;;;24.20;87.80;;;;;;5012982;28;20435;-85
2021/06/16 09:04:10;;;;;;;2.80;1.65;;;24.40;87.70;;;;;;4985605;28;20058;-86
2021/06/16 09:06:36;;;;;;;3.20;1.95;;;24.50;87.20;;;;;;4963977;28;20054;-84
2021/06/16 09:09:27;;;;;;;2.97;1.30;;;24.50;87.00;;;;;;4976428;28;20034;-85
2021/06/16 09:11:53;;;;;;;3.78;1.45;;;24.60;86.80;;;;;;4988959;28;20117;-84
2021/06/16 09:14:23;;;;;;;2.83;1.73;;;24.60;86.50;;;;;;4993883;28;20437;-84
2021/06/16 09:16:57;;;;;;;3.22;1.55;;;24.80;86.40;;;;;;4977288;28;20069;-83
2021/06/16 09:19:26;;;;;;;3.28;1.98;;;24.80;86.00;;;;;;4997378;28;20038;-84
2021/06/16 09:22:08;;;;;;;3.58;1.83;;;24.90;85.60;;;;;;4996923;28;20038;-84
2021/06/16 09:24:50;;;;;;;4.40;1.90;;;25.00;85.30;;;;;;4981139;28;20516;-85
2021/06/16 09:27:38;;;;;;;5.55;1.85;;;25.10;85.00;;;;;;4981525;28;20027;-83
2021/06/16 09:30:24;;;;;;;3.17;1.70;;;25.10;84.60;;;;;;5012617;28;20466;-84
2021/06/16 09:33:07;;;;;;;2.65;1.88;;;25.40;84.90;;;;;;4980712;28;20031;-85
2021/06/16 09:35:38;;;;;;;4.00;1.95;;;26.10;84.60;;;;;;4976349;28;20075;-86
2021/06/16 09:38:21;;;;;;;3.42;1.88;;;27.20;82.90;;;;;;4991438;28;20417;-85
2021/06/16 09:40:46;;;;;;;4.63;1.80;;;28.00;81.20;;;;;;4981092;28;20026;-85
2021/06/16 09:43:56;;;;;;;;;;;;;;;;;;;;;
2021/06/16 09:46:27;;;;;;;3.22;1.42;;;29.40;79.20;;;;;;4964892;28;20044;-84
2021/06/16 09:48:58;;;;;;;2.78;1.70;;;30.30;77.00;;;;;;4978170;28;20041;-85
2021/06/16 09:51:35;;;;;;;2.38;1.45;;;30.60;74.90;;;;;;4996990;28;20109;-85
2021/06/16 09:54:30;;;;;;;3.70;1.45;;;31.00;74.10;;;;;;4997173;28;20109;-85
2021/06/16 09:56:59;;;;;;;4.07;1.45;;;31.60;73.60;;;;;;4979838;28;20023;-85
2021/06/16 09:59:47;;;;;;;3.15;1.55;;;32.10;72.50;;;;;;4964225;28;20030;-85
2021/06/16 10:02:42;;;;;;;4.20;1.52;;;32.50;71.10;;;;;;4980354;28;20026;-84
2021/06/16 10:05:14;;;;;;;3.05;1.75;;;32.20;69.20;;;;;;5011669;28;20057;-87
2021/06/16 10:07:53;;;;;;;1.98;1.15;;;31.90;69.40;;;;;;5016841;28;20018;-87
2021/06/16 10:10:36;;;;;;;2.78;1.40;;;31.90;69.30;;;;;;5005221;28;20101;-85
2021/06/16 10:13:09;;;;;;;3.47;1.67;;;32.10;68.40;;;;;;5025998;28;20022;-84
2021/06/16 10:15:50;;;;;;;3.15;1.40;;;32.10;67.50;;;;;;5027607;28;20105;-86
2021/06/16 10:19:56;;;;;;;3.25;1.35;;;32.40;66.80;;;;;;5013671;28;20526;-85
2021/06/16 10:22:08;;;;;;;1.42;1.10;;;32.60;66.10;;;;;;4944986;29;20031;-85
2021/06/16 10:24:35;;;;;;;4.88;1.30;;;32.90;65.80;;;;;;4949989;29;20102;-86
2021/06/16 10:27:04;;;;;;;5.13;1.48;;;33.20;64.80;;;;;;4975844;28;20042;-88
2021/06/16 10:29:45;;;;;;;3.63;1.83;;;33.40;64.20;;;;;;4995789;28;20034;-87
2021/06/16 10:32:14;;;;;;;2.38;1.27;;;33.60;63.00;;;;;;4964189;28;20380;-86
2021/06/16 10:35:02;;;;;;;;;;;;;;;;;;;;;
2021/06/16 10:37:35;;;;;;;3.08;1.48;;;34.10;61.90;;;;;;5000007;28;20026;-86
2021/06/16 10:40:25;;;;;;;;;;;;;;;;;;;;;
2021/06/16 10:43:33;;;;;;;2.28;1.40;;;34.60;60.90;;;;;;5008841;28;20463;-86
2021/06/16 10:46:08;;;;;;;2.83;1.63;;;34.70;60.60;;;;;;4996525;28;20129;-83
2021/06/16 10:48:58;;;;;;;3.10;1.42;;;35.00;60.00;;;;;;4994224;28;20018;-84
2021/06/16 10:55:27;;;;;;;3.20;1.58;;;35.30;58.90;;;;;;4996072;28;20088;-85
2021/06/16 10:58:25;;;;;;;3.78;1.40;;;35.40;58.50;;;;;;4976998;28;20088;-85
2021/06/16 11:01:16;;;;;;;3.80;1.70;;;35.50;58.10;;;;;;4984424;28;20040;-86
2021/06/16 11:11:18;;;;;;;2.72;1.70;;;36.10;56.80;;;;;;4979846;28;20114;-85
2021/06/16 11:17:33;;;;;;;3.40;1.75;;;36.00;56.60;;;;;;4998721;28;20034;-86
2021/06/16 11:20:30;;;;;;;2.67;1.52;;;36.00;55.80;;;;;;4967580;28;20030;-85
2021/06/16 11:23:52;;;;;;;6.00;3.63;;;36.00;55.70;;;;;;4981311;28;20031;-85
2021/06/16 11:27:44;;;;;;;;;;;;;;;;;;;;;
2021/06/16 11:30:26;;;;;;;;;;;;;;;;;;;;;
2021/06/16 11:33:44;;;;;;;3.80;2.67;;;35.50;54.20;;;;;;4933752;29;20055;-85
2021/06/16 11:36:40;;;;;;;3.45;1.85;;;35.30;54.50;;;;;;4968095;28;20034;-86
2021/06/16 11:39:29;;;;;;;2.85;1.70;;;35.30;55.00;;;;;;4930643;29;20040;-86
2021/06/16 11:42:14;;;;;;;4.60;2.13;;;35.80;54.90;;;;;;4929203;29;20353;-91
2021/06/16 11:45:01;;;;;;;4.55;2.42;;;35.80;53.60;;;;;;4961120;28;20486;-89
2021/06/16 11:47:28;;;;;;;3.50;1.92;;;35.50;53.80;;;;;;4970205;28;20359;-87
2021/06/16 11:50:14;;;;;;;;;;;;;;;;;;;;;
2021/06/16 11:53:48;;;;;;;2.83;2.10;;;36.20;54.30;;;;;;4972195;28;20046;-87
2021/06/16 11:56:21;;;;;;;3.30;1.90;;;36.40;53.40;;;;;;4971979;28;20588;-86
2021/06/16 11:58:50;;;;;;;2.33;1.90;;;36.40;53.70;;;;;;4972079;28;20065;-87
2021/06/16 12:01:22;;;;;;;3.08;2.10;;;36.50;53.50;;;;;;4988804;28;20034;-86
2021/06/16 12:03:59;;;;;;;3.13;1.90;;;36.50;53.50;;;;;;4976601;28;20465;-86
2021/06/16 12:06:32;;;;;;;4.72;2.08;;;36.50;53.50;;;;;;5005667;28;20120;-88
2021/06/16 12:09:03;;;;;;;3.05;1.77;;;36.60;53.40;;;;;;5009045;28;20113;-87
2021/06/16 12:11:38;;;;;;;5.10;1.90;;;36.70;53.70;;;;;;4991077;28;20064;-86
2021/06/16 12:14:13;;;;;;;3.42;2.20;;;37.00;53.60;;;;;;4990949;28;20096;-88
2021/06/16 12:16:48;;;;;;;3.53;2.17;;;37.10;52.70;;;;;;4988380;28;20050;-86
2021/06/16 12:19:19;;;;;;;3.03;1.75;;;36.90;52.60;;;;;;4986805;28;20026;-87
2021/06/16 12:22:11;;;;;;;4.00;1.90;;;37.00;52.80;;;;;;5004846;28;20033;-86
2021/06/16 12:24:59;;;;;;;3.28;1.92;;;37.30;52.90;;;;;;5004305;28;20049;-87
2021/06/16 12:27:31;;;;;;;3.53;1.88;;;37.50;52.20;;;;;;4984826;28;20024;-87
2021/06/16 12:30:37;;;;;;;3.30;1.77;;;37.10;53.00;;;;;;5009641;28;20129;-87
2021/06/16 12:33:32;;;;;;;4.07;2.05;;;37.10;53.00;;;;;;4988474;28;20057;-86
2021/06/16 12:39:11;;;;;;;3.35;2.00;;;37.40;53.10;;;;;;5005289;28;20044;-86
2021/06/16 12:41:53;;;;;;;4.03;2.35;;;37.80;52.50;;;;;;4985589;28;20394;-89
2021/06/16 12:44:22;;;;;;;5.03;2.70;;;37.70;51.70;;;;;;4977211;28;20034;-90
2021/06/16 12:47:21;;;;;;;4.32;2.42;;;37.40;51.20;;;;;;4991660;28;20040;-87
2021/06/16 12:51:13;;;;;;;3.60;2.20;;;36.90;51.40;;;;;;5000628;28;20029;-89
2021/06/16 12:54:09;;;;;;;3.22;2.20;;;36.70;52.20;;;;;;4984837;28;20441;-88
2021/06/16 12:56:59;;;;;;;2.95;2.15;;;36.00;52.60;;;;;;4990796;28;20048;-88
2021/06/16 13:03:24;;;;;;;2.47;1.88;;;36.10;53.70;;;;;;5023975;28;20052;-87
2021/06/16 13:06:23;;;;;;;2.78;1.90;;;36.50;53.20;;;;;;5008380;28;20038;-88
2021/06/16 13:09:17;;;;;;;3.70;2.03;;;36.80;53.30;;;;;;4982888;28;20325;-88
2021/06/16 13:12:22;;;;;;;3.50;1.85;;;37.00;52.90;;;;;;4986891;28;20042;-87
2021/06/16 13:15:12;;;;;;;4.65;2.20;;;37.00;53.00;;;;;;4990162;28;20474;-89
2021/06/16 13:18:20;;;;;;;;;;;;;;;;;;;;;
2021/06/16 13:25:05;;;;;;;;;;;;;;;;;;;;;
2021/06/16 13:28:22;;;;;;;;;;;;;;;;;;;;;
2021/06/16 13:31:18;;;;;;;4.40;2.60;;;37.60;52.30;;;;;;4819755;29;20061;-88
2021/06/16 13:34:17;;;;;;;3.35;2.47;;;37.80;52.10;;;;;;4869376;29;20037;-91
2021/06/16 13:37:25;;;;;;;3.60;2.30;;;37.70;52.10;;;;;;4853312;29;20466;-90
2021/06/16 13:47:06;;;;;;;;;;;;;;;;;;;;;
2021/06/16 13:50:01;;;;;;;3.60;2.17;;;38.10;51.80;;;;;;4889624;29;20037;-91
2021/06/16 13:57:27;;;;;;;3.03;2.03;;;38.20;52.10;;;;;;4882720;29;20052;-86
2021/06/16 14:00:31;;;;;;;4.30;2.15;;;38.30;52.10;;;;;;4778942;29;20050;-86
2021/06/16 14:05:54;;;;;;;3.03;2.20;;;38.60;51.40;;;;;;4926163;29;20066;-89
2021/06/16 14:08:23;;;;;;;4.70;2.13;;;38.50;51.50;;;;;;5000376;28;20038;-90
2021/06/16 14:11:14;;;;;;;;;;;;;;;;;;;;;
2021/06/16 14:14:01;;;;;;;;;;;;;;;;;;;;;
2021/06/16 14:17:01;;;;;;;3.88;2.63;;;38.50;51.30;;;;;;5004011;28;20022;-90
2021/06/16 14:19:39;;;;;;;3.88;2.50;;;38.40;51.20;;;;;;4976858;28;20062;-89